Barbara P — CQHY — position and weather

sailwx.info

Track history (hours):
 
Tides and Currents Weather Stations Pressure Air Temp Water Temp Dewpoint Dewpoint Depression Visibility Wind Speed Wind Dir Waves Ship Positions

Barbara P

Last reported at 2017-Sep-19 03:50 UTC. Time now 2017-Sep-19 17:21 UTC.
Position N 41°10' E 002°07'.

Length 139 m; draft 7.4 m.

Type: Cargo ship. MMSI: 255805600.

Date/timePositionNaut miles runAvg speedWind from/ knotsBaromVisibWave heightAir tempDewpointWater temp
2017-Sep-19 03:50N 41°10' E 002°07'412.2
2017-Sep-19 03:30N 41°07' E 002°05'612.0
2017-Sep-19 02:58N 41°01' E 002°01'612.2
2017-Sep-19 02:30N 40°56' E 001°58'611.9
2017-Sep-19 02:00N 40°50' E 001°54'612.6
2017-Sep-19 01:30N 40°45' E 001°50'713.2
2017-Sep-19 01:00N 40°39' E 001°46'713.3
2017-Sep-19 00:30N 40°33' E 001°42'713.3
2017-Sep-19 00:00N 40°27' E 001°38'713.6
2017-Sep-18 23:30N 40°21' E 001°34'713.6
2017-Sep-18 23:00N 40°15' E 001°30'713.3
2017-Sep-18 22:30N 40°09' E 001°26'613.2
2017-Sep-18 22:01N 40°03' E 001°22'713.3
2017-Sep-18 21:30N 39°58' E 001°18'713.2
2017-Sep-18 21:00N 39°52' E 001°14'713.2
2017-Sep-18 20:30N 39°46' E 001°10'4512.9
2017-Sep-18 16:59N 39°05' E 000°43'912.5
2017-Sep-18 16:17N 38°58' E 000°38'2512.7
2017-Sep-18 14:20N 38°36' E 000°22'512.7
2017-Sep-18 13:54N 38°33' E 000°16'512.6
2017-Sep-18 13:30N 38°32' E 000°10'612.6
2017-Sep-18 13:00N 38°29' E 000°03'712.5
2017-Sep-18 12:25N 38°26' W 000°06'512.4
2017-Sep-18 11:59N 38°24' W 000°12'612.4
2017-Sep-18 11:29N 38°21' W 000°19'9 1.4
2017-Sep-18 05:06N 38°20' W 000°30'22 9.4
2017-Sep-18 02:49N 37°59' W 000°24'513.6
2017-Sep-18 02:26N 37°53' W 000°25'613.6
2017-Sep-18 02:00N 37°48' W 000°26'713.4
2017-Sep-18 01:30N 37°41' W 000°27'713.3
2017-Sep-18 00:59N 37°34' W 000°30'1013.9
2017-Sep-18 00:14N 37°27' W 000°39'313.8
2017-Sep-18 00:00N 37°25' W 000°42'714.0
2017-Sep-17 23:30N 37°20' W 000°48'713.9
2017-Sep-17 22:59N 37°16' W 000°55'713.9
2017-Sep-17 22:29N 37°11' W 001°02'713.9
2017-Sep-17 21:59N 37°07' W 001°09'1313.7
2017-Sep-17 21:01N 36°58' W 001°21'013.5
2017-Sep-17 21:00N 36°58' W 001°21'19414.5
2017-Sep-17 07:38N 36°00' W 005°12'217.3
2017-Sep-17 07:30N 35°60' W 005°15'918.0
2017-Sep-17 07:01N 35°58' W 005°25'30715.2
2017-Sep-16 10:49N 32°24' W 009°52'614.7
2017-Sep-16 10:24N 32°20' W 009°57'4914.2
2017-Sep-16 06:58N 31°44' W 010°36'614.1
2017-Sep-16 06:31N 31°39' W 010°41'2713.7
2017-Sep-16 04:34N 31°19' W 011°02'113.4
2017-Sep-16 04:31N 31°19' W 011°03'713.1
2017-Sep-16 03:58N 31°14' W 011°08'613.2
2017-Sep-16 03:30N 31°09' W 011°13'713.6
2017-Sep-16 03:00N 31°04' W 011°19'913.7
2017-Sep-16 02:22N 30°58' W 011°26'514.1
2017-Sep-16 02:00N 30°54' W 011°29'714.4
2017-Sep-16 01:30N 30°48' W 011°35'714.7
2017-Sep-16 01:00N 30°43' W 011°40'714.4
2017-Sep-16 00:30N 30°37' W 011°46'1014.4
2017-Sep-15 23:50N 30°30' W 011°53'614.3
2017-Sep-15 23:25N 30°26' W 011°58'814.4
2017-Sep-15 22:50N 30°19' W 012°04'514.3
2017-Sep-15 22:30N 30°16' W 012°08'714.4
2017-Sep-15 22:00N 30°10' W 012°13'714.6
2017-Sep-15 21:30N 30°05' W 012°19'714.5
2017-Sep-15 21:00N 29°60' W 012°24'714.5
2017-Sep-15 20:30N 29°54' W 012°30'714.6
2017-Sep-15 20:00N 29°49' W 012°36'814.8
2017-Sep-15 19:30N 29°43' W 012°42'715.0
2017-Sep-15 19:00N 29°38' W 012°47'815.6
2017-Sep-15 18:29N 29°32' W 012°53'715.5
2017-Sep-15 18:00N 29°26' W 012°59'815.4
2017-Sep-15 17:28N 29°20' W 013°05'815.3
2017-Sep-15 16:57N 29°14' W 013°12'815.3
2017-Sep-15 16:23N 29°07' W 013°18'615.1
2017-Sep-15 16:00N 29°03' W 013°22'814.7
2017-Sep-15 15:30N 28°58' W 013°28'3 6.5
2017-Sep-15 15:00N 28°58' W 013°32'0 0.0
2017-Sep-15 14:30N 28°58' W 013°32'0 0.0
2017-Sep-15 13:57N 28°58' W 013°32'0 0.0
2017-Sep-15 13:21N 28°58' W 013°32'0 0.0
2017-Sep-15 13:00N 28°58' W 013°32'0 0.0
2017-Sep-15 12:27N 28°58' W 013°32'0 0.0
2017-Sep-15 11:54N 28°58' W 013°32'0 0.0
2017-Sep-15 11:30N 28°58' W 013°32'0 0.0
2017-Sep-15 10:54N 28°58' W 013°32'0 0.0
2017-Sep-15 10:24N 28°58' W 013°32'0 0.0
2017-Sep-15 09:57N 28°58' W 013°32'0 0.0
2017-Sep-15 09:24N 28°58' W 013°32'0 0.0
2017-Sep-15 08:57N 28°58' W 013°32'0 0.0
2017-Sep-15 08:27N 28°58' W 013°32'0 0.0
2017-Sep-15 07:57N 28°58' W 013°32'0 0.0
2017-Sep-15 07:27N 28°58' W 013°32'0 0.5
2017-Sep-15 07:00N 28°58' W 013°32'2 4.0
2017-Sep-15 06:30N 28°56' W 013°32'2 3.1
2017-Sep-15 06:00N 28°55' W 013°34'4 8.5
2017-Sep-15 05:30N 28°53' W 013°38'510.9
2017-Sep-15 05:00N 28°50' W 013°43'612.9
2017-Sep-15 04:31N 28°48' W 013°50'815.7
2017-Sep-15 04:01N 28°48' W 013°59'816.1
2017-Sep-15 03:31N 28°47' W 014°08'816.4
2017-Sep-15 03:01N 28°46' W 014°18'816.6
2017-Sep-15 02:31N 28°46' W 014°27'816.8
2017-Sep-15 02:01N 28°45' W 014°36'816.5
2017-Sep-15 01:31N 28°44' W 014°46'816.4
2017-Sep-15 01:00N 28°43' W 014°55'816.5
2017-Sep-15 00:30N 28°42' W 015°04'816.5
2017-Sep-15 00:00N 28°41' W 015°14'816.7
2017-Sep-14 23:30N 28°41' W 015°23'917.1
2017-Sep-14 23:00N 28°40' W 015°33'917.0
2017-Sep-14 22:30N 28°39' W 015°43'917.0
2017-Sep-14 21:59N 28°36' W 015°52'816.9
2017-Sep-14 21:30N 28°33' W 016°00'816.7
2017-Sep-14 21:00N 28°29' W 016°09'4 7.6
2017-Sep-14 20:30N 28°29' W 016°13'0 0.1
2017-Sep-14 19:52N 28°29' W 016°13'0 0.0
2017-Sep-14 18:34N 28°29' W 016°13'0 0.0
2017-Sep-14 15:37N 28°29' W 016°13'0 0.0
2017-Sep-14 15:10N 28°29' W 016°13'0 0.0
2017-Sep-14 14:55N 28°29' W 016°13'0 0.0
2017-Sep-14 14:25N 28°29' W 016°13'0 0.0
2017-Sep-14 13:55N 28°29' W 016°13'0 0.0
2017-Sep-14 13:28N 28°29' W 016°13'0 0.0
2017-Sep-14 12:58N 28°29' W 016°13'0 0.0
2017-Sep-14 12:28N 28°29' W 016°13'0 0.0
2017-Sep-14 11:55N 28°29' W 016°13'0 0.0
2017-Sep-14 11:28N 28°29' W 016°13'0 0.0
2017-Sep-14 01:12N 28°29' W 016°13'0 1.3
2017-Sep-14 01:00N 28°29' W 016°14'2 3.2
2017-Sep-14 00:30N 28°28' W 016°13'5 9.8
2017-Sep-13 23:59N 28°25' W 016°08'612.8
2017-Sep-13 23:30N 28°23' W 016°01'612.5
2017-Sep-13 23:00N 28°21' W 015°55'612.2
2017-Sep-13 22:30N 28°19' W 015°48'612.5
2017-Sep-13 22:00N 28°17' W 015°41'612.6
2017-Sep-13 21:30N 28°16' W 015°34'613.0
2017-Sep-13 21:00N 28°14' W 015°27'612.3
2017-Sep-13 20:30N 28°11' W 015°21'5 9.2
2017-Sep-13 20:00N 28°07' W 015°25'1 1.4
2017-Sep-13 19:29N 28°08' W 015°25'0 0.0
2017-Sep-13 18:47N 28°08' W 015°25'0 0.0
2017-Sep-13 18:29N 28°08' W 015°25'0 0.0
2017-Sep-13 17:59N 28°08' W 015°25'0 0.0
2017-Sep-13 17:20N 28°08' W 015°25'0 0.0
2017-Sep-13 16:50N 28°08' W 015°25'0 0.0
2017-Sep-13 16:20N 28°08' W 015°25'0 0.0
2017-Sep-13 15:53N 28°08' W 015°25'0 0.0
2017-Sep-13 15:23N 28°08' W 015°25'0 0.0
2017-Sep-13 14:56N 28°08' W 015°25'0 0.0
2017-Sep-13 14:20N 28°08' W 015°25'0 0.0
2017-Sep-13 13:53N 28°08' W 015°25'0 0.0
2017-Sep-13 13:23N 28°08' W 015°25'0 0.0
2017-Sep-13 12:56N 28°08' W 015°25'0 0.0
2017-Sep-13 12:26N 28°08' W 015°25'0 0.0
2017-Sep-13 11:56N 28°08' W 015°25'0 0.0
2017-Sep-13 11:26N 28°08' W 015°25'0 0.0
2017-Sep-13 10:56N 28°08' W 015°25'0 0.0
2017-Sep-13 10:29N 28°08' W 015°25'0 0.0
2017-Sep-13 09:59N 28°08' W 015°25'0 0.0
2017-Sep-13 09:29N 28°08' W 015°25'0 0.0
2017-Sep-13 08:59N 28°08' W 015°25'0 0.0
2017-Sep-13 08:29N 28°08' W 015°25'0 0.0
2017-Sep-13 07:59N 28°08' W 015°25'0 0.0
2017-Sep-13 07:29N 28°08' W 015°25'0 0.0
2017-Sep-13 06:59N 28°08' W 015°25'0 0.0
2017-Sep-13 06:29N 28°08' W 015°25'0 0.0
2017-Sep-13 05:59N 28°08' W 015°25'0 0.0
2017-Sep-13 05:17N 28°08' W 015°25'0 0.0
2017-Sep-13 04:59N 28°08' W 015°25'0 0.0
2017-Sep-13 04:29N 28°08' W 015°25'0 0.0
2017-Sep-13 03:59N 28°08' W 015°25'0 0.0
2017-Sep-13 03:26N 28°08' W 015°25'0 0.0
2017-Sep-13 02:50N 28°08' W 015°25'0 0.0
2017-Sep-13 02:26N 28°08' W 015°25'0 0.0
2017-Sep-13 01:50N 28°08' W 015°25'0 0.0
2017-Sep-13 01:23N 28°08' W 015°25'0 0.0
2017-Sep-13 00:53N 28°08' W 015°25'0 0.0
2017-Sep-13 00:23N 28°08' W 015°25'0 0.0
2017-Sep-12 23:53N 28°08' W 015°25'0 0.0
2017-Sep-12 23:26N 28°08' W 015°25'0 0.0
2017-Sep-12 22:56N 28°08' W 015°25'0 0.0
2017-Sep-12 22:26N 28°08' W 015°25'0 0.0
2017-Sep-12 21:56N 28°08' W 015°25'0 0.0
2017-Sep-12 21:26N 28°08' W 015°25'0 0.0
2017-Sep-12 20:56N 28°08' W 015°25'0 0.0
2017-Sep-12 20:29N 28°08' W 015°25'0 0.0
2017-Sep-12 19:59N 28°08' W 015°25'0 0.0
2017-Sep-12 19:29N 28°08' W 015°25'0 0.0
2017-Sep-12 18:59N 28°08' W 015°25'0 0.0
2017-Sep-12 18:29N 28°08' W 015°25'0 0.0
2017-Sep-12 17:59N 28°08' W 015°25'0 0.0
2017-Sep-12 17:29N 28°08' W 015°25'2 3.6
2017-Sep-12 17:00N 28°07' W 015°23'5 9.2
2017-Sep-12 16:30N 28°11' W 015°22'510.0
2017-Sep-12 16:00N 28°14' W 015°27'611.8
2017-Sep-12 15:30N 28°14' W 015°33'611.6
2017-Sep-12 15:00N 28°16' W 015°40'611.8
2017-Sep-12 14:30N 28°17' W 015°46'611.4
2017-Sep-12 14:00N 28°18' W 015°53'611.1
2017-Sep-12 13:30N 28°20' W 015°59'611.5
2017-Sep-12 13:00N 28°23' W 016°04'611.0
2017-Sep-12 12:30N 28°26' W 016°10'510.3
2017-Sep-12 12:00N 28°29' W 016°14'0 0.1
2017-Sep-12 06:09N 28°29' W 016°14'0 2.3
2017-Sep-12 05:56N 28°29' W 016°14'3 7.5
2017-Sep-12 05:30N 28°29' W 016°10'713.6
2017-Sep-12 05:00N 28°32' W 016°04'815.6
2017-Sep-12 04:30N 28°37' W 015°57'915.8
2017-Sep-12 03:56N 28°43' W 015°49'716.2
2017-Sep-12 03:30N 28°48' W 015°44'816.1
2017-Sep-12 03:00N 28°53' W 015°36'816.3
2017-Sep-12 02:31N 28°58' W 015°29'816.2
2017-Sep-12 02:00N 29°04' W 015°22'815.6
2017-Sep-12 01:30N 29°09' W 015°15'1916.5
2017-Sep-12 00:22N 29°21' W 014°59'617.3
2017-Sep-11 23:59N 29°25' W 014°53'1217.3
2017-Sep-11 23:18N 29°33' W 014°43'1617.2
2017-Sep-11 22:23N 29°43' W 014°29'59217.2
2017-Sep-10 11:56N 35°60' W 005°25'613.7
2017-Sep-10 11:30N 36°02' W 005°19'714.3
2017-Sep-10 11:01N 36°04' W 005°10'20415.1
2017-Sep-09 21:27N 37°10' W 001°09'816.7
2017-Sep-09 21:00N 37°15' W 001°02'816.5
2017-Sep-09 20:30N 37°20' W 000°54'816.5
2017-Sep-09 20:00N 37°25' W 000°46'916.7
2017-Sep-09 19:30N 37°31' W 000°38'816.2
2017-Sep-09 19:00N 37°37' W 000°32'816.9
2017-Sep-09 18:31N 37°45' W 000°30'917.0
2017-Sep-09 18:00N 37°54' W 000°27'917.1
2017-Sep-09 17:31N 38°02' W 000°25'816.5
2017-Sep-09 17:00N 38°10' W 000°23'10 1.2
2017-Sep-09 09:04N 38°19' W 000°29'0 3.5
2017-Sep-09 09:00N 38°19' W 000°29'611.7
2017-Sep-09 08:30N 38°20' W 000°21'816.7
2017-Sep-09 08:01N 38°24' W 000°12'816.1
2017-Sep-09 07:30N 38°29' W 000°03'1016.0
2017-Sep-09 06:54N 38°33' E 000°07'915.8
2017-Sep-09 06:18N 38°38' E 000°18'515.2
2017-Sep-09 05:59N 38°42' E 000°22'715.6
2017-Sep-09 05:30N 38°48' E 000°26'815.4
2017-Sep-09 05:00N 38°55' E 000°31'  
Track history (hours):
 
Tides and Currents Weather Stations Pressure Air Temp Water Temp Dewpoint Dewpoint Depression Visibility Wind Speed Wind Dir Waves Ship Positions

Barbara P

Last reported at 2017-Sep-19 03:50 UTC. Time now 2017-Sep-19 17:21 UTC.
Position N 41°10' E 002°07'.

Length 139 m; draft 7.4 m.

Type: Cargo ship. MMSI: 255805600.

Date/timePositionNaut miles runAvg speedWind from/ knotsBaromVisibWave heightAir tempDewpointWater temp
2017-Sep-19 03:50N 41°10' E 002°07'412.2
2017-Sep-19 03:30N 41°07' E 002°05'612.0
2017-Sep-19 02:58N 41°01' E 002°01'612.2
2017-Sep-19 02:30N 40°56' E 001°58'611.9
2017-Sep-19 02:00N 40°50' E 001°54'612.6
2017-Sep-19 01:30N 40°45' E 001°50'713.2
2017-Sep-19 01:00N 40°39' E 001°46'713.3
2017-Sep-19 00:30N 40°33' E 001°42'713.3
2017-Sep-19 00:00N 40°27' E 001°38'713.6
2017-Sep-18 23:30N 40°21' E 001°34'713.6
2017-Sep-18 23:00N 40°15' E 001°30'713.3
2017-Sep-18 22:30N 40°09' E 001°26'613.2
2017-Sep-18 22:01N 40°03' E 001°22'713.3
2017-Sep-18 21:30N 39°58' E 001°18'713.2
2017-Sep-18 21:00N 39°52' E 001°14'713.2
2017-Sep-18 20:30N 39°46' E 001°10'4512.9
2017-Sep-18 16:59N 39°05' E 000°43'912.5
2017-Sep-18 16:17N 38°58' E 000°38'2512.7
2017-Sep-18 14:20N 38°36' E 000°22'512.7
2017-Sep-18 13:54N 38°33' E 000°16'512.6
2017-Sep-18 13:30N 38°32' E 000°10'612.6
2017-Sep-18 13:00N 38°29' E 000°03'712.5
2017-Sep-18 12:25N 38°26' W 000°06'512.4
2017-Sep-18 11:59N 38°24' W 000°12'612.4
2017-Sep-18 11:29N 38°21' W 000°19'9 1.4
2017-Sep-18 05:06N 38°20' W 000°30'22 9.4
2017-Sep-18 02:49N 37°59' W 000°24'513.6
2017-Sep-18 02:26N 37°53' W 000°25'613.6
2017-Sep-18 02:00N 37°48' W 000°26'713.4
2017-Sep-18 01:30N 37°41' W 000°27'713.3
2017-Sep-18 00:59N 37°34' W 000°30'1013.9
2017-Sep-18 00:14N 37°27' W 000°39'313.8
2017-Sep-18 00:00N 37°25' W 000°42'714.0
2017-Sep-17 23:30N 37°20' W 000°48'713.9
2017-Sep-17 22:59N 37°16' W 000°55'713.9
2017-Sep-17 22:29N 37°11' W 001°02'713.9
2017-Sep-17 21:59N 37°07' W 001°09'1313.7
2017-Sep-17 21:01N 36°58' W 001°21'013.5
2017-Sep-17 21:00N 36°58' W 001°21'19414.5
2017-Sep-17 07:38N 36°00' W 005°12'217.3
2017-Sep-17 07:30N 35°60' W 005°15'918.0
2017-Sep-17 07:01N 35°58' W 005°25'30715.2
2017-Sep-16 10:49N 32°24' W 009°52'614.7
2017-Sep-16 10:24N 32°20' W 009°57'4914.2
2017-Sep-16 06:58N 31°44' W 010°36'614.1
2017-Sep-16 06:31N 31°39' W 010°41'2713.7
2017-Sep-16 04:34N 31°19' W 011°02'113.4
2017-Sep-16 04:31N 31°19' W 011°03'713.1
2017-Sep-16 03:58N 31°14' W 011°08'613.2
2017-Sep-16 03:30N 31°09' W 011°13'713.6
2017-Sep-16 03:00N 31°04' W 011°19'913.7
2017-Sep-16 02:22N 30°58' W 011°26'514.1
2017-Sep-16 02:00N 30°54' W 011°29'714.4
2017-Sep-16 01:30N 30°48' W 011°35'714.7
2017-Sep-16 01:00N 30°43' W 011°40'714.4
2017-Sep-16 00:30N 30°37' W 011°46'1014.4
2017-Sep-15 23:50N 30°30' W 011°53'614.3
2017-Sep-15 23:25N 30°26' W 011°58'814.4
2017-Sep-15 22:50N 30°19' W 012°04'514.3
2017-Sep-15 22:30N 30°16' W 012°08'714.4
2017-Sep-15 22:00N 30°10' W 012°13'714.6
2017-Sep-15 21:30N 30°05' W 012°19'714.5
2017-Sep-15 21:00N 29°60' W 012°24'714.5
2017-Sep-15 20:30N 29°54' W 012°30'714.6
2017-Sep-15 20:00N 29°49' W 012°36'814.8
2017-Sep-15 19:30N 29°43' W 012°42'715.0
2017-Sep-15 19:00N 29°38' W 012°47'815.6
2017-Sep-15 18:29N 29°32' W 012°53'715.5
2017-Sep-15 18:00N 29°26' W 012°59'815.4
2017-Sep-15 17:28N 29°20' W 013°05'815.3
2017-Sep-15 16:57N 29°14' W 013°12'815.3
2017-Sep-15 16:23N 29°07' W 013°18'615.1
2017-Sep-15 16:00N 29°03' W 013°22'814.7
2017-Sep-15 15:30N 28°58' W 013°28'3 6.5
2017-Sep-15 15:00N 28°58' W 013°32'0 0.0
2017-Sep-15 14:30N 28°58' W 013°32'0 0.0
2017-Sep-15 13:57N 28°58' W 013°32'0 0.0
2017-Sep-15 13:21N 28°58' W 013°32'0 0.0
2017-Sep-15 13:00N 28°58' W 013°32'0 0.0
2017-Sep-15 12:27N 28°58' W 013°32'0 0.0
2017-Sep-15 11:54N 28°58' W 013°32'0 0.0
2017-Sep-15 11:30N 28°58' W 013°32'0 0.0
2017-Sep-15 10:54N 28°58' W 013°32'0 0.0
2017-Sep-15 10:24N 28°58' W 013°32'0 0.0
2017-Sep-15 09:57N 28°58' W 013°32'0 0.0
2017-Sep-15 09:24N 28°58' W 013°32'0 0.0
2017-Sep-15 08:57N 28°58' W 013°32'0 0.0
2017-Sep-15 08:27N 28°58' W 013°32'0 0.0
2017-Sep-15 07:57N 28°58' W 013°32'0 0.0
2017-Sep-15 07:27N 28°58' W 013°32'0 0.5
2017-Sep-15 07:00N 28°58' W 013°32'2 4.0
2017-Sep-15 06:30N 28°56' W 013°32'2 3.1
2017-Sep-15 06:00N 28°55' W 013°34'4 8.5
2017-Sep-15 05:30N 28°53' W 013°38'510.9
2017-Sep-15 05:00N 28°50' W 013°43'612.9
2017-Sep-15 04:31N 28°48' W 013°50'815.7
2017-Sep-15 04:01N 28°48' W 013°59'816.1
2017-Sep-15 03:31N 28°47' W 014°08'816.4
2017-Sep-15 03:01N 28°46' W 014°18'816.6
2017-Sep-15 02:31N 28°46' W 014°27'816.8
2017-Sep-15 02:01N 28°45' W 014°36'816.5
2017-Sep-15 01:31N 28°44' W 014°46'816.4
2017-Sep-15 01:00N 28°43' W 014°55'816.5
2017-Sep-15 00:30N 28°42' W 015°04'816.5
2017-Sep-15 00:00N 28°41' W 015°14'816.7
2017-Sep-14 23:30N 28°41' W 015°23'917.1
2017-Sep-14 23:00N 28°40' W 015°33'917.0
2017-Sep-14 22:30N 28°39' W 015°43'917.0
2017-Sep-14 21:59N 28°36' W 015°52'816.9
2017-Sep-14 21:30N 28°33' W 016°00'816.7
2017-Sep-14 21:00N 28°29' W 016°09'4 7.6
2017-Sep-14 20:30N 28°29' W 016°13'0 0.1
2017-Sep-14 19:52N 28°29' W 016°13'0 0.0
2017-Sep-14 18:34N 28°29' W 016°13'0 0.0
2017-Sep-14 15:37N 28°29' W 016°13'0 0.0
2017-Sep-14 15:10N 28°29' W 016°13'0 0.0
2017-Sep-14 14:55N 28°29' W 016°13'0 0.0
2017-Sep-14 14:25N 28°29' W 016°13'0 0.0
2017-Sep-14 13:55N 28°29' W 016°13'0 0.0
2017-Sep-14 13:28N 28°29' W 016°13'0 0.0
2017-Sep-14 12:58N 28°29' W 016°13'0 0.0
2017-Sep-14 12:28N 28°29' W 016°13'0 0.0
2017-Sep-14 11:55N 28°29' W 016°13'0 0.0
2017-Sep-14 11:28N 28°29' W 016°13'0 0.0
2017-Sep-14 01:12N 28°29' W 016°13'0 1.3
2017-Sep-14 01:00N 28°29' W 016°14'2 3.2
2017-Sep-14 00:30N 28°28' W 016°13'5 9.8
2017-Sep-13 23:59N 28°25' W 016°08'612.8
2017-Sep-13 23:30N 28°23' W 016°01'612.5
2017-Sep-13 23:00N 28°21' W 015°55'612.2
2017-Sep-13 22:30N 28°19' W 015°48'612.5
2017-Sep-13 22:00N 28°17' W 015°41'612.6
2017-Sep-13 21:30N 28°16' W 015°34'613.0
2017-Sep-13 21:00N 28°14' W 015°27'612.3
2017-Sep-13 20:30N 28°11' W 015°21'5 9.2
2017-Sep-13 20:00N 28°07' W 015°25'1 1.4
2017-Sep-13 19:29N 28°08' W 015°25'0 0.0
2017-Sep-13 18:47N 28°08' W 015°25'0 0.0
2017-Sep-13 18:29N 28°08' W 015°25'0 0.0
2017-Sep-13 17:59N 28°08' W 015°25'0 0.0
2017-Sep-13 17:20N 28°08' W 015°25'0 0.0
2017-Sep-13 16:50N 28°08' W 015°25'0 0.0
2017-Sep-13 16:20N 28°08' W 015°25'0 0.0
2017-Sep-13 15:53N 28°08' W 015°25'0 0.0
2017-Sep-13 15:23N 28°08' W 015°25'0 0.0
2017-Sep-13 14:56N 28°08' W 015°25'0 0.0
2017-Sep-13 14:20N 28°08' W 015°25'0 0.0
2017-Sep-13 13:53N 28°08' W 015°25'0 0.0
2017-Sep-13 13:23N 28°08' W 015°25'0 0.0
2017-Sep-13 12:56N 28°08' W 015°25'0 0.0
2017-Sep-13 12:26N 28°08' W 015°25'0 0.0
2017-Sep-13 11:56N 28°08' W 015°25'0 0.0
2017-Sep-13 11:26N 28°08' W 015°25'0 0.0
2017-Sep-13 10:56N 28°08' W 015°25'0 0.0
2017-Sep-13 10:29N 28°08' W 015°25'0 0.0
2017-Sep-13 09:59N 28°08' W 015°25'0 0.0
2017-Sep-13 09:29N 28°08' W 015°25'0 0.0
2017-Sep-13 08:59N 28°08' W 015°25'0 0.0
2017-Sep-13 08:29N 28°08' W 015°25'0 0.0
2017-Sep-13 07:59N 28°08' W 015°25'0 0.0
2017-Sep-13 07:29N 28°08' W 015°25'0 0.0
2017-Sep-13 06:59N 28°08' W 015°25'0 0.0
2017-Sep-13 06:29N 28°08' W 015°25'0 0.0
2017-Sep-13 05:59N 28°08' W 015°25'0 0.0
2017-Sep-13 05:17N 28°08' W 015°25'0 0.0
2017-Sep-13 04:59N 28°08' W 015°25'0 0.0
2017-Sep-13 04:29N 28°08' W 015°25'0 0.0
2017-Sep-13 03:59N 28°08' W 015°25'0 0.0
2017-Sep-13 03:26N 28°08' W 015°25'0 0.0
2017-Sep-13 02:50N 28°08' W 015°25'0 0.0
2017-Sep-13 02:26N 28°08' W 015°25'0 0.0
2017-Sep-13 01:50N 28°08' W 015°25'0 0.0
2017-Sep-13 01:23N 28°08' W 015°25'0 0.0
2017-Sep-13 00:53N 28°08' W 015°25'0 0.0
2017-Sep-13 00:23N 28°08' W 015°25'0 0.0
2017-Sep-12 23:53N 28°08' W 015°25'0 0.0
2017-Sep-12 23:26N 28°08' W 015°25'0 0.0
2017-Sep-12 22:56N 28°08' W 015°25'0 0.0
2017-Sep-12 22:26N 28°08' W 015°25'0 0.0
2017-Sep-12 21:56N 28°08' W 015°25'0 0.0
2017-Sep-12 21:26N 28°08' W 015°25'0 0.0
2017-Sep-12 20:56N 28°08' W 015°25'0 0.0
2017-Sep-12 20:29N 28°08' W 015°25'0 0.0
2017-Sep-12 19:59N 28°08' W 015°25'0 0.0
2017-Sep-12 19:29N 28°08' W 015°25'0 0.0
2017-Sep-12 18:59N 28°08' W 015°25'0 0.0
2017-Sep-12 18:29N 28°08' W 015°25'0 0.0
2017-Sep-12 17:59N 28°08' W 015°25'0 0.0
2017-Sep-12 17:29N 28°08' W 015°25'2 3.6
2017-Sep-12 17:00N 28°07' W 015°23'5 9.2
2017-Sep-12 16:30N 28°11' W 015°22'510.0
2017-Sep-12 16:00N 28°14' W 015°27'611.8
2017-Sep-12 15:30N 28°14' W 015°33'611.6
2017-Sep-12 15:00N 28°16' W 015°40'611.8
2017-Sep-12 14:30N 28°17' W 015°46'611.4
2017-Sep-12 14:00N 28°18' W 015°53'611.1
2017-Sep-12 13:30N 28°20' W 015°59'611.5
2017-Sep-12 13:00N 28°23' W 016°04'611.0
2017-Sep-12 12:30N 28°26' W 016°10'510.3
2017-Sep-12 12:00N 28°29' W 016°14'0 0.1
2017-Sep-12 06:09N 28°29' W 016°14'0 2.3
2017-Sep-12 05:56N 28°29' W 016°14'3 7.5
2017-Sep-12 05:30N 28°29' W 016°10'713.6
2017-Sep-12 05:00N 28°32' W 016°04'815.6
2017-Sep-12 04:30N 28°37' W 015°57'915.8
2017-Sep-12 03:56N 28°43' W 015°49'716.2
2017-Sep-12 03:30N 28°48' W 015°44'816.1
2017-Sep-12 03:00N 28°53' W 015°36'816.3
2017-Sep-12 02:31N 28°58' W 015°29'816.2
2017-Sep-12 02:00N 29°04' W 015°22'815.6
2017-Sep-12 01:30N 29°09' W 015°15'1916.5
2017-Sep-12 00:22N 29°21' W 014°59'617.3
2017-Sep-11 23:59N 29°25' W 014°53'1217.3
2017-Sep-11 23:18N 29°33' W 014°43'1617.2
2017-Sep-11 22:23N 29°43' W 014°29'59217.2
2017-Sep-10 11:56N 35°60' W 005°25'613.7
2017-Sep-10 11:30N 36°02' W 005°19'714.3
2017-Sep-10 11:01N 36°04' W 005°10'20415.1
2017-Sep-09 21:27N 37°10' W 001°09'816.7
2017-Sep-09 21:00N 37°15' W 001°02'816.5
2017-Sep-09 20:30N 37°20' W 000°54'816.5
2017-Sep-09 20:00N 37°25' W 000°46'916.7
2017-Sep-09 19:30N 37°31' W 000°38'816.2
2017-Sep-09 19:00N 37°37' W 000°32'816.9
2017-Sep-09 18:31N 37°45' W 000°30'917.0
2017-Sep-09 18:00N 37°54' W 000°27'917.1
2017-Sep-09 17:31N 38°02' W 000°25'816.5
2017-Sep-09 17:00N 38°10' W 000°23'10 1.2
2017-Sep-09 09:04N 38°19' W 000°29'0 3.5
2017-Sep-09 09:00N 38°19' W 000°29'611.7
2017-Sep-09 08:30N 38°20' W 000°21'816.7
2017-Sep-09 08:01N 38°24' W 000°12'816.1
2017-Sep-09 07:30N 38°29' W 000°03'1016.0
2017-Sep-09 06:54N 38°33' E 000°07'915.8
2017-Sep-09 06:18N 38°38' E 000°18'515.2
2017-Sep-09 05:59N 38°42' E 000°22'715.6
2017-Sep-09 05:30N 38°48' E 000°26'815.4
2017-Sep-09 05:00N 38°55' E 000°31'  

Dump ship's entire track history